createdAt,value
2023-02-19T00:04:59.805Z,96132.03
2023-02-19T00:10:01.394Z,96104.34
2023-02-19T00:15:05.070Z,96104.75
2023-02-19T00:20:07.047Z,96107.06
2023-02-19T00:25:08.645Z,96100.78
2023-02-19T00:30:10.749Z,96102.34
2023-02-19T00:35:12.323Z,96099.25
2023-02-19T00:40:14.126Z,96097.69
2023-02-19T00:45:15.892Z,96099.66
2023-02-19T00:50:17.564Z,96090.28
2023-02-19T00:55:19.151Z,96089.09
2023-02-19T01:00:20.987Z,96085.88
2023-02-19T01:05:22.668Z,96102.94
2023-02-19T01:10:24.369Z,96084.56
2023-02-19T01:15:26.264Z,96061.94
2023-02-19T01:20:28.443Z,96066.22
2023-02-19T01:25:30.071Z,96062.69
2023-02-19T01:30:34.797Z,96047.53
2023-02-19T01:35:40.087Z,96040.81
2023-02-19T01:40:41.758Z,96042.72
2023-02-19T01:45:45.642Z,96047.03
2023-02-19T01:50:54.437Z,96026.78
2023-02-19T01:55:59.845Z,96015.50
2023-02-19T02:01:07.077Z,96014.25
2023-02-19T02:06:21.296Z,95995.59
2023-02-19T02:11:23.193Z,96000.66
2023-02-19T02:17:06.197Z,95983.91
2023-02-19T02:22:39.396Z,95989.69
2023-02-19T02:27:54.041Z,95962.72
2023-02-19T02:33:03.489Z,95965.88
2023-02-19T02:38:08.998Z,95964.25
2023-02-19T02:43:11.954Z,95949.38
2023-02-19T02:48:39.066Z,95942.38
2023-02-19T02:54:11.566Z,95944.28
2023-02-19T02:59:18.308Z,95940.78
2023-02-19T03:04:29.721Z,95934.25
2023-02-19T03:09:43.084Z,95942.03
2023-02-19T03:15:07.781Z,95926.84
2023-02-19T03:20:13.865Z,95908.19
2023-02-19T03:25:40.014Z,95923.00
2023-02-19T03:30:47.659Z,95912.13
2023-02-19T03:35:56.987Z,95916.38
2023-02-19T03:41:23.994Z,95916.38
2023-02-19T03:46:40.354Z,95918.34
2023-02-19T03:51:51.400Z,95915.19
2023-02-19T03:57:03.488Z,95912.53
2023-02-19T04:02:14.828Z,95893.78
2023-02-19T04:07:40.062Z,95872.72
2023-02-19T04:12:48.549Z,95885.09
2023-02-19T04:18:01.670Z,95878.84
2023-02-19T04:23:03.492Z,95886.63
2023-02-19T04:28:05.533Z,95897.94
2023-02-19T04:33:07.338Z,95900.25
2023-02-19T04:38:09.005Z,95888.16
2023-02-19T04:43:10.722Z,95946.53
2023-02-19T04:48:12.658Z,95927.44
2023-02-19T04:53:14.259Z,95917.63
2023-02-19T04:58:15.854Z,95919.16
2023-02-19T05:03:17.432Z,95924.25
2023-02-19T05:08:19.342Z,95950.72
2023-02-19T05:13:21.097Z,95925.78
2023-02-19T05:18:22.868Z,95935.38
2023-02-19T05:23:24.901Z,95934.56
2023-02-19T05:28:28.954Z,95926.72
2023-02-19T05:33:30.613Z,95938.72
2023-02-19T05:38:32.552Z,95921.66
2023-02-19T05:43:34.258Z,95939.53
2023-02-19T05:48:36.184Z,95926.72
2023-02-19T05:53:39.584Z,95918.47
2023-02-19T05:58:41.218Z,95920.84
2023-02-19T06:03:43.107Z,95941.91
2023-02-19T06:08:44.815Z,95982.72
2023-02-19T06:13:47.164Z,95958.56
2023-02-19T06:18:49.538Z,95941.09
2023-02-19T06:23:51.088Z,95940.72
2023-02-19T06:28:54.092Z,95941.81
2023-02-19T06:33:55.777Z,95932.78
2023-02-19T06:39:00.991Z,95932.66
2023-02-19T06:44:02.609Z,95944.31
2023-02-19T06:49:05.353Z,95977.25
2023-02-19T06:54:07.274Z,95972.72
2023-02-19T06:59:12.496Z,95988.91
2023-02-19T07:04:16.724Z,95983.56
2023-02-19T07:09:18.455Z,96010.78
2023-02-19T07:14:20.916Z,96006.16
2023-02-19T07:19:22.394Z,96021.47
2023-02-19T07:24:26.143Z,96021.94
2023-02-19T07:29:27.674Z,96025.78
2023-02-19T07:34:29.288Z,96043.25
2023-02-19T07:39:30.848Z,96043.72
2023-02-19T07:44:34.978Z,96038.72
2023-02-19T07:49:36.588Z,96049.31
2023-02-19T07:54:38.124Z,96053.97
2023-02-19T07:59:39.687Z,96053.97
2023-02-19T08:04:41.224Z,96042.59
2023-02-19T08:09:42.804Z,96062.47
2023-02-19T08:14:44.484Z,96075.44
2023-02-19T08:19:46.051Z,96073.59
2023-02-19T08:24:48.851Z,96083.81
2023-02-19T08:29:50.474Z,96093.09
2023-02-19T08:34:52.057Z,96097.00
2023-02-19T08:39:53.636Z,96105.22
2023-02-19T08:44:55.268Z,96100.66
2023-02-19T08:49:56.815Z,96094.50
2023-02-19T08:54:58.828Z,96099.84
2023-02-19T09:00:00.633Z,96100.56
2023-02-19T09:05:02.413Z,96111.56
2023-02-19T09:10:05.344Z,96136.81
2023-02-19T09:15:08.001Z,96118.50
2023-02-19T09:20:10.603Z,96124.84
2023-02-19T09:25:12.200Z,96144.69
2023-02-19T09:30:13.868Z,96138.00
2023-02-19T09:35:15.441Z,96147.81
2023-02-19T09:40:21.505Z,96154.84
2023-02-19T09:45:27.492Z,96163.81
2023-02-19T09:50:36.148Z,96171.34
2023-02-19T09:55:44.075Z,96179.44
2023-02-19T10:00:49.573Z,96187.69
2023-02-19T10:05:53.148Z,96192.50
2023-02-19T10:10:54.977Z,96195.25
2023-02-19T10:15:58.721Z,96198.63
2023-02-19T10:21:00.350Z,96202.19
2023-02-19T10:26:01.802Z,96187.38
2023-02-19T10:31:11.392Z,96194.47
2023-02-19T10:36:47.303Z,96200.59
2023-02-19T10:41:50.959Z,96217.47
2023-02-19T10:46:57.477Z,96217.44
2023-02-19T10:52:12.386Z,96205.00
2023-02-19T10:57:21.097Z,96227.19
2023-02-19T11:02:22.935Z,96223.34
2023-02-19T11:07:24.483Z,96217.25
2023-02-19T11:12:29.765Z,96210.38
2023-02-19T11:17:31.379Z,96223.56
2023-02-19T11:22:37.793Z,96213.41
2023-02-19T11:28:13.682Z,96215.81
2023-02-19T11:33:22.236Z,96215.06
2023-02-19T11:38:23.822Z,96233.75
2023-02-19T11:43:44.007Z,96224.75
2023-02-19T11:49:06.957Z,96228.22
2023-02-19T11:54:32.148Z,96231.31
2023-02-19T12:00:13.764Z,96219.72
2023-02-19T12:05:23.896Z,96224.31
2023-02-19T12:10:25.505Z,96226.75
2023-02-19T12:21:04.494Z,96240.00
2023-02-19T12:26:15.024Z,96247.72
2023-02-19T12:31:34.654Z,96256.69
2023-02-19T12:36:50.042Z,96244.94
2023-02-19T12:42:07.554Z,96264.00
2023-02-19T12:47:18.302Z,96274.81
2023-02-19T12:52:28.246Z,96266.31
2023-02-19T12:57:39.243Z,96249.00
2023-02-19T13:03:08.654Z,96266.09
2023-02-19T13:08:34.757Z,96295.22
2023-02-19T13:13:43.737Z,96273.81
2023-02-19T13:18:50.011Z,96264.25
2023-02-19T13:24:02.844Z,96272.97
2023-02-19T13:29:33.036Z,96251.25
2023-02-19T13:35:12.408Z,96255.78
2023-02-19T13:40:39.370Z,96259.47
2023-02-19T13:45:43.868Z,96238.16
2023-02-19T13:50:45.451Z,96252.59
2023-02-19T13:55:51.442Z,96253.00
2023-02-19T14:00:54.690Z,96283.44
2023-02-19T14:06:02.586Z,96251.06
2023-02-19T14:11:05.001Z,96238.00
2023-02-19T14:16:52.795Z,96259.03
2023-02-19T14:21:54.531Z,96269.66
2023-02-19T14:26:57.158Z,96252.91
2023-02-19T14:32:01.029Z,96266.13
2023-02-19T14:37:06.778Z,96293.84
2023-02-19T14:42:12.989Z,96281.25
2023-02-19T14:47:18.337Z,96291.78
2023-02-19T14:52:28.920Z,96301.19
2023-02-19T14:57:35.681Z,96316.75
2023-02-19T15:02:43.192Z,96314.84
2023-02-19T15:07:45.493Z,96328.84
2023-02-19T15:13:01.155Z,96328.13
2023-02-19T15:18:05.119Z,96340.19
2023-02-19T15:23:07.785Z,96341.31
2023-02-19T15:28:38.568Z,96339.28
2023-02-19T15:33:50.876Z,96343.88
2023-02-19T15:38:54.774Z,96362.38
2023-02-19T15:44:01.423Z,96356.56
2023-02-19T15:49:11.270Z,96365.78
2023-02-19T15:54:38.303Z,96362.25
2023-02-19T15:59:46.676Z,96366.44
2023-02-19T16:04:48.209Z,96351.06
2023-02-19T16:10:30.756Z,96358.09
2023-02-19T16:15:33.306Z,96368.28
2023-02-19T16:20:36.054Z,96388.09
2023-02-19T16:25:42.145Z,96394.84
2023-02-19T16:30:44.070Z,96402.59
2023-02-19T16:35:48.028Z,96418.56
2023-02-19T16:40:50.576Z,96420.53
2023-02-19T16:45:52.386Z,96416.22
2023-02-19T16:50:53.984Z,96415.44
2023-02-19T16:55:58.463Z,96423.53
2023-02-19T17:01:02.376Z,96419.56
2023-02-19T17:06:04.387Z,96436.34
2023-02-19T17:11:10.807Z,96426.53
2023-02-19T17:16:25.162Z,96450.34
2023-02-19T17:21:29.250Z,96462.91
2023-02-19T17:26:33.850Z,96462.00
2023-02-19T17:31:35.586Z,96476.91
2023-02-19T17:36:42.815Z,96487.00
2023-02-19T17:41:44.348Z,96485.88
2023-02-19T17:46:50.249Z,96498.72
2023-02-19T17:51:51.803Z,96503.72
2023-02-19T17:56:53.336Z,96516.13
2023-02-19T18:01:57.049Z,96521.16
2023-02-19T18:06:58.572Z,96511.41
2023-02-19T18:12:02.374Z,96533.84
2023-02-19T18:17:03.911Z,96543.59
2023-02-19T18:22:06.647Z,96535.78
2023-02-19T18:27:08.249Z,96548.59
2023-02-19T18:32:10.007Z,96558.66
2023-02-19T18:37:11.648Z,96571.50
2023-02-19T18:42:13.417Z,96570.63
2023-02-19T18:47:15.960Z,96579.56
2023-02-19T18:52:20.376Z,96573.00
2023-02-19T18:57:26.505Z,96578.50
2023-02-19T19:02:33.764Z,96584.72
2023-02-19T19:07:41.078Z,96590.56
2023-02-19T19:12:42.765Z,96579.66
2023-02-19T19:17:44.356Z,96581.94
2023-02-19T19:22:46.293Z,96598.94
2023-02-19T19:27:50.344Z,96585.53
2023-02-19T19:32:52.731Z,96594.41
2023-02-19T19:37:54.369Z,96597.53
2023-02-19T19:42:55.909Z,96595.63
2023-02-19T19:47:57.414Z,96591.03
2023-02-19T19:52:58.985Z,96607.97
2023-02-19T19:58:01.277Z,96624.31
2023-02-19T20:03:03.356Z,96621.66
2023-02-19T20:08:05.586Z,96615.41
2023-02-19T20:13:07.428Z,96614.19
2023-02-19T20:18:12.263Z,96621.59
2023-02-19T20:23:13.824Z,96630.97
2023-02-19T20:28:15.492Z,96625.53
2023-02-19T20:33:17.051Z,96633.00
2023-02-19T20:38:18.621Z,96626.75
2023-02-19T20:43:20.185Z,96634.22
2023-02-19T20:48:21.858Z,96640.09
2023-02-19T20:53:23.399Z,96637.72
2023-02-19T20:58:26.283Z,96636.88
2023-02-19T21:03:30.195Z,96633.28
2023-02-19T21:08:31.781Z,96642.50
2023-02-19T21:13:35.031Z,96640.94
2023-02-19T21:18:36.630Z,96637.16
2023-02-19T21:23:38.247Z,96646.09
2023-02-19T21:28:40.605Z,96649.56
2023-02-19T21:33:42.227Z,96630.03
2023-02-19T21:38:43.801Z,96621.44
2023-02-19T21:43:45.368Z,96639.72
2023-02-19T21:48:51.087Z,96630.75
2023-02-19T21:53:52.660Z,96639.56
2023-02-19T21:58:54.714Z,96640.09
2023-02-19T22:03:56.338Z,96642.84
2023-02-19T22:08:59.334Z,96640.38
2023-02-19T22:14:01.137Z,96639.50
2023-02-19T22:19:03.010Z,96645.03
2023-02-19T22:24:05.061Z,96649.00
2023-02-19T22:29:08.274Z,96657.22
2023-02-19T22:34:10.109Z,96646.72
2023-02-19T22:39:21.452Z,96657.16
2023-02-19T22:44:23.079Z,96669.28
2023-02-19T22:49:24.940Z,96672.84
2023-02-19T22:54:29.335Z,96666.00
2023-02-19T22:59:31.278Z,96667.22
2023-02-19T23:04:32.880Z,96660.34
2023-02-19T23:09:34.608Z,96652.69
2023-02-19T23:14:36.556Z,96647.31
2023-02-19T23:19:38.132Z,96657.78
2023-02-19T23:24:40.032Z,96652.28
2023-02-19T23:29:44.120Z,96653.34
2023-02-19T23:34:45.683Z,96657.47
2023-02-19T23:39:47.241Z,96655.91
2023-02-19T23:44:49.087Z,96654.94
2023-02-19T23:49:50.672Z,96656.88
2023-02-19T23:54:52.228Z,96655.28
2023-02-19T23:59:55.521Z,96643.28
